sensor_id;sensor_type;location;lat;lon;timestamp;pressure;altitude;pressure_sealevel;temperature;humidity
20909;BME280;10614;53.198;6.570;2023-02-15T00:00:14;103012.59;;;4.38;100.00
20909;BME280;10614;53.198;6.570;2023-02-15T00:02:16;103009.06;;;4.36;100.00
20909;BME280;10614;53.198;6.570;2023-02-15T00:04:22;103012.50;;;4.35;100.00
20909;BME280;10614;53.198;6.570;2023-02-15T00:06:23;103006.34;;;4.30;100.00
20909;BME280;10614;53.198;6.570;2023-02-15T00:08:25;103009.81;;;4.29;100.00
20909;BME280;10614;53.198;6.570;2023-02-15T00:10:28;103001.06;;;4.27;100.00
20909;BME280;10614;53.198;6.570;2023-02-15T00:12:30;103004.50;;;4.24;100.00
20909;BME280;10614;53.198;6.570;2023-02-15T00:14:32;103000.00;;;4.18;100.00
20909;BME280;10614;53.198;6.570;2023-02-15T00:16:34;102994.63;;;4.11;100.00
20909;BME280;10614;53.198;6.570;2023-02-15T00:18:36;102992.81;;;4.07;100.00
20909;BME280;10614;53.198;6.570;2023-02-15T00:20:38;102986.69;;;4.05;100.00
20909;BME280;10614;53.198;6.570;2023-02-15T00:22:39;102981.47;;;4.05;100.00
20909;BME280;10614;53.198;6.570;2023-02-15T00:24:41;102986.69;;;4.05;100.00
20909;BME280;10614;53.198;6.570;2023-02-15T00:26:44;102989.22;;;4.01;100.00
20909;BME280;10614;53.198;6.570;2023-02-15T00:28:46;102990.00;;;3.96;100.00
20909;BME280;10614;53.198;6.570;2023-02-15T00:30:48;102982.91;;;3.90;100.00
20909;BME280;10614;53.198;6.570;2023-02-15T00:32:49;102982.84;;;3.87;100.00
20909;BME280;10614;53.198;6.570;2023-02-15T00:34:51;102985.41;;;3.86;100.00
20909;BME280;10614;53.198;6.570;2023-02-15T00:36:53;102981.97;;;3.87;100.00
20909;BME280;10614;53.198;6.570;2023-02-15T00:38:54;102982.78;;;3.86;100.00
20909;BME280;10614;53.198;6.570;2023-02-15T00:40:57;102983.66;;;3.86;100.00
20909;BME280;10614;53.198;6.570;2023-02-15T00:43:01;102982.78;;;3.86;100.00
20909;BME280;10614;53.198;6.570;2023-02-15T00:45:03;102979.38;;;3.87;100.00
20909;BME280;10614;53.198;6.570;2023-02-15T00:47:05;102980.13;;;3.83;100.00
20909;BME280;10614;53.198;6.570;2023-02-15T00:49:06;102976.66;;;3.84;100.00
20909;BME280;10614;53.198;6.570;2023-02-15T00:51:08;102974.06;;;3.82;100.00
20909;BME280;10614;53.198;6.570;2023-02-15T00:53:10;102974.06;;;3.82;100.00
20909;BME280;10614;53.198;6.570;2023-02-15T00:55:11;102973.09;;;3.78;100.00
20909;BME280;10614;53.198;6.570;2023-02-15T00:57:13;102972.06;;;3.72;100.00
20909;BME280;10614;53.198;6.570;2023-02-15T00:59:16;102973.78;;;3.71;100.00
20909;BME280;10614;53.198;6.570;2023-02-15T01:01:19;102972.00;;;3.69;100.00
20909;BME280;10614;53.198;6.570;2023-02-15T01:03:21;102972.81;;;3.66;100.00
20909;BME280;10614;53.198;6.570;2023-02-15T01:05:23;102971.03;;;3.65;100.00
20909;BME280;10614;53.198;6.570;2023-02-15T01:07:25;102972.75;;;3.63;100.00
20909;BME280;10614;53.198;6.570;2023-02-15T01:09:26;102967.56;;;3.63;100.00
20909;BME280;10614;53.198;6.570;2023-02-15T01:11:28;102965.78;;;3.62;100.00
20909;BME280;10614;53.198;6.570;2023-02-15T01:13:30;102963.16;;;3.61;100.00
20909;BME280;10614;53.198;6.570;2023-02-15T01:15:35;102967.47;;;3.60;100.00
20909;BME280;10614;53.198;6.570;2023-02-15T01:17:36;102964.78;;;3.57;100.00
20909;BME280;10614;53.198;6.570;2023-02-15T01:19:38;102958.56;;;3.50;100.00
20909;BME280;10614;53.198;6.570;2023-02-15T01:21:40;102955.13;;;3.51;100.00
20909;BME280;10614;53.198;6.570;2023-02-15T01:23:42;102955.03;;;3.48;100.00
20909;BME280;10614;53.198;6.570;2023-02-15T01:25:44;102959.38;;;3.48;100.00
20909;BME280;10614;53.198;6.570;2023-02-15T01:27:46;102947.22;;;3.48;100.00
20909;BME280;10614;53.198;6.570;2023-02-15T01:29:48;102948.09;;;3.49;100.00
20909;BME280;10614;53.198;6.570;2023-02-15T01:31:51;102941.16;;;3.48;100.00
20909;BME280;10614;53.198;6.570;2023-02-15T01:33:52;102938.59;;;3.49;100.00
20909;BME280;10614;53.198;6.570;2023-02-15T01:35:57;102936.78;;;3.47;100.00
20909;BME280;10614;53.198;6.570;2023-02-15T01:37:59;102935.06;;;3.47;100.00
20909;BME280;10614;53.198;6.570;2023-02-15T01:40:01;102938.44;;;3.43;100.00
20909;BME280;10614;53.198;6.570;2023-02-15T01:42:03;102929.66;;;3.38;100.00
20909;BME280;10614;53.198;6.570;2023-02-15T01:46:39;102926.81;;;3.29;100.00
20909;BME280;10614;53.198;6.570;2023-02-15T01:48:47;102925.06;;;3.28;100.00
20909;BME280;10614;53.198;6.570;2023-02-15T01:50:51;102922.44;;;3.26;100.00
20909;BME280;10614;53.198;6.570;2023-02-15T01:52:58;102922.38;;;3.25;100.00
20909;BME280;10614;53.198;6.570;2023-02-15T01:55:00;102924.97;;;3.23;100.00
20909;BME280;10614;53.198;6.570;2023-02-15T01:57:04;102927.53;;;3.22;100.00
20909;BME280;10614;53.198;6.570;2023-02-15T01:59:09;102924.03;;;3.21;100.00
20909;BME280;10614;53.198;6.570;2023-02-15T02:01:13;102914.44;;;3.19;100.00
20909;BME280;10614;53.198;6.570;2023-02-15T02:03:15;102926.56;;;3.18;100.00
20909;BME280;10614;53.198;6.570;2023-02-15T02:05:18;102916.94;;;3.15;100.00
20909;BME280;10614;53.198;6.570;2023-02-15T02:07:22;102928.16;;;3.13;100.00
20909;BME280;10614;53.198;6.570;2023-02-15T02:09:25;102918.56;;;3.10;100.00
20909;BME280;10614;53.198;6.570;2023-02-15T02:11:27;102911.56;;;3.08;100.00
20909;BME280;10614;53.198;6.570;2023-02-15T02:13:29;102905.44;;;3.06;100.00
20909;BME280;10614;53.198;6.570;2023-02-15T02:15:39;102900.19;;;3.04;100.00
20909;BME280;10614;53.198;6.570;2023-02-15T02:17:51;102895.84;;;3.03;100.00
20909;BME280;10614;53.198;6.570;2023-02-15T02:20:27;102900.19;;;3.03;100.00
20909;BME280;10614;53.198;6.570;2023-02-15T02:23:03;102895.81;;;3.02;100.00
20909;BME280;10614;53.198;6.570;2023-02-15T02:25:23;102896.66;;;3.01;100.00
20909;BME280;10614;53.198;6.570;2023-02-15T02:27:34;102894.88;;;3.00;100.00
20909;BME280;10614;53.198;6.570;2023-02-15T02:34:51;102892.03;;;2.89;100.00
20909;BME280;10614;53.198;6.570;2023-02-15T02:37:01;102884.06;;;2.83;100.00
20909;BME280;10614;53.198;6.570;2023-02-15T02:39:12;102882.28;;;2.80;100.00
20909;BME280;10614;53.198;6.570;2023-02-15T02:41:26;102885.63;;;2.76;100.00
20909;BME280;10614;53.198;6.570;2023-02-15T02:43:35;102884.75;;;2.75;100.00
20909;BME280;10614;53.198;6.570;2023-02-15T02:45:44;102888.13;;;2.71;100.00
20909;BME280;10614;53.198;6.570;2023-02-15T02:47:53;102885.34;;;2.64;100.00
20909;BME280;10614;53.198;6.570;2023-02-15T02:50:00;102877.47;;;2.61;100.00
20909;BME280;10614;53.198;6.570;2023-02-15T02:52:05;102873.06;;;2.58;100.00
20909;BME280;10614;53.198;6.570;2023-02-15T02:54:07;102870.41;;;2.57;100.00
20909;BME280;10614;53.198;6.570;2023-02-15T02:56:14;102873.88;;;2.56;100.00
20909;BME280;10614;53.198;6.570;2023-02-15T02:58:21;102876.47;;;2.56;100.00
20909;BME280;10614;53.198;6.570;2023-02-15T03:00:27;102872.16;;;2.56;100.00
20909;BME280;10614;53.198;6.570;2023-02-15T03:02:33;102864.34;;;2.56;100.00
20909;BME280;10614;53.198;6.570;2023-02-15T03:04:38;102864.41;;;2.58;100.00
20909;BME280;10614;53.198;6.570;2023-02-15T03:06:47;102862.66;;;2.58;100.00
20909;BME280;10614;53.198;6.570;2023-02-15T03:08:54;102861.81;;;2.59;100.00
20909;BME280;10614;53.198;6.570;2023-02-15T03:11:01;102859.22;;;2.59;100.00
20909;BME280;10614;53.198;6.570;2023-02-15T03:13:04;102857.47;;;2.60;100.00
20909;BME280;10614;53.198;6.570;2023-02-15T03:15:10;102850.59;;;2.60;100.00
20909;BME280;10614;53.198;6.570;2023-02-15T03:17:14;102846.19;;;2.58;100.00
20909;BME280;10614;53.198;6.570;2023-02-15T03:19:20;102854.88;;;2.60;100.00
20909;BME280;10614;53.198;6.570;2023-02-15T03:21:30;102852.25;;;2.58;100.00
20909;BME280;10614;53.198;6.570;2023-02-15T03:23:34;102852.28;;;2.60;100.00
20909;BME280;10614;53.198;6.570;2023-02-15T03:25:40;102854.00;;;2.59;100.00
20909;BME280;10614;53.198;6.570;2023-02-15T03:27:45;102848.78;;;2.58;100.00
20909;BME280;10614;53.198;6.570;2023-02-15T03:29:50;102846.09;;;2.54;100.00
20909;BME280;10614;53.198;6.570;2023-02-15T03:31:56;102844.34;;;2.53;100.00
20909;BME280;10614;53.198;6.570;2023-02-15T03:34:03;102838.97;;;2.47;100.00
20909;BME280;10614;53.198;6.570;2023-02-15T03:36:09;102840.59;;;2.42;100.00
20909;BME280;10614;53.198;6.570;2023-02-15T03:38:25;102838.84;;;2.41;100.00
20909;BME280;10614;53.198;6.570;2023-02-15T03:40:31;102829.22;;;2.39;100.00
20909;BME280;10614;53.198;6.570;2023-02-15T03:42:58;102825.75;;;2.38;100.00
20909;BME280;10614;53.198;6.570;2023-02-15T03:45:05;102817.94;;;2.37;100.00
20909;BME280;10614;53.198;6.570;2023-02-15T03:47:11;102818.75;;;2.36;100.00
20909;BME280;10614;53.198;6.570;2023-02-15T03:49:18;102811.84;;;2.36;100.00
20909;BME280;10614;53.198;6.570;2023-02-15T03:51:25;102809.22;;;2.36;100.00
20909;BME280;10614;53.198;6.570;2023-02-15T03:53:37;102811.84;;;2.36;100.00
20909;BME280;10614;53.198;6.570;2023-02-15T03:55:41;102813.59;;;2.37;100.00
20909;BME280;10614;53.198;6.570;2023-02-15T03:57:43;102816.22;;;2.39;100.00
20909;BME280;10614;53.198;6.570;2023-02-15T04:00:08;102818.00;;;2.40;100.00
20909;BME280;10614;53.198;6.570;2023-02-15T04:02:33;102817.16;;;2.41;100.00
20909;BME280;10614;53.198;6.570;2023-02-15T04:04:41;102819.78;;;2.42;100.00
20909;BME280;10614;53.198;6.570;2023-02-15T04:06:44;102816.31;;;2.42;100.00
20909;BME280;10614;53.198;6.570;2023-02-15T04:08:46;102816.34;;;2.43;100.00
20909;BME280;10614;53.198;6.570;2023-02-15T04:11:06;102818.94;;;2.43;100.00
20909;BME280;10614;53.198;6.570;2023-02-15T04:13:08;102822.44;;;2.44;100.00
20909;BME280;10614;53.198;6.570;2023-02-15T04:15:11;102823.25;;;2.41;100.00
20909;BME280;10614;53.198;6.570;2023-02-15T04:17:31;102812.75;;;2.37;100.00
20909;BME280;10614;53.198;6.570;2023-02-15T04:19:32;102810.91;;;2.34;100.00
20909;BME280;10614;53.198;6.570;2023-02-15T04:21:52;102809.16;;;2.33;100.00
20909;BME280;10614;53.198;6.570;2023-02-15T04:24:11;102808.25;;;2.31;100.00
20909;BME280;10614;53.198;6.570;2023-02-15T04:26:32;102806.50;;;2.30;100.00
20909;BME280;10614;53.198;6.570;2023-02-15T04:28:33;102802.97;;;2.28;100.00
20909;BME280;10614;53.198;6.570;2023-02-15T04:30:35;102807.25;;;2.26;100.00
20909;BME280;10614;53.198;6.570;2023-02-15T04:32:37;102810.69;;;2.25;100.00
20909;BME280;10614;53.198;6.570;2023-02-15T04:34:38;102813.06;;;2.17;100.00
20909;BME280;10614;53.198;6.570;2023-02-15T04:36:41;102807.69;;;2.09;100.00
20909;BME280;10614;53.198;6.570;2023-02-15T04:38:42;102812.88;;;2.09;100.00
20909;BME280;10614;53.198;6.570;2023-02-15T04:40:46;102799.81;;;2.06;100.00
20909;BME280;10614;53.198;6.570;2023-02-15T04:42:51;102800.69;;;2.07;100.00
20909;BME280;10614;53.198;6.570;2023-02-15T04:44:53;102795.50;;;2.07;100.00
20909;BME280;10614;53.198;6.570;2023-02-15T04:46:55;102792.91;;;2.07;100.00
20909;BME280;10614;53.198;6.570;2023-02-15T04:48:56;102794.66;;;2.08;100.00
20909;BME280;10614;53.198;6.570;2023-02-15T04:50:58;102780.84;;;2.09;100.00
20909;BME280;10614;53.198;6.570;2023-02-15T04:53:00;102779.97;;;2.08;100.00
20909;BME280;10614;53.198;6.570;2023-02-15T04:55:01;102790.34;;;2.08;100.00
20909;BME280;10614;53.198;6.570;2023-02-15T04:57:03;102783.44;;;2.10;100.00
20909;BME280;10614;53.198;6.570;2023-02-15T04:59:06;102785.22;;;2.11;100.00
20909;BME280;10614;53.198;6.570;2023-02-15T05:01:08;102780.03;;;2.11;100.00
20909;BME280;10614;53.198;6.570;2023-02-15T05:03:10;102779.16;;;2.11;100.00
20909;BME280;10614;53.198;6.570;2023-02-15T05:05:11;102782.69;;;2.13;100.00
20909;BME280;10614;53.198;6.570;2023-02-15T05:07:15;102780.09;;;2.13;100.00
20909;BME280;10614;53.198;6.570;2023-02-15T05:09:17;102778.38;;;2.14;100.00
20909;BME280;10614;53.198;6.570;2023-02-15T05:11:18;102777.50;;;2.13;100.00
20909;BME280;10614;53.198;6.570;2023-02-15T05:13:20;102773.16;;;2.14;100.00
20909;BME280;10614;53.198;6.570;2023-02-15T05:15:23;102770.56;;;2.14;100.00
20909;BME280;10614;53.198;6.570;2023-02-15T05:17:24;102775.75;;;2.14;100.00
20909;BME280;10614;53.198;6.570;2023-02-15T05:19:26;102772.31;;;2.15;100.00
20909;BME280;10614;53.198;6.570;2023-02-15T05:21:28;102765.38;;;2.14;100.00
20909;BME280;10614;53.198;6.570;2023-02-15T05:23:29;102766.19;;;2.13;100.00
20909;BME280;10614;53.198;6.570;2023-02-15T05:25:31;102771.38;;;2.13;100.00
20909;BME280;10614;53.198;6.570;2023-02-15T05:27:50;102761.00;;;2.13;100.00
20909;BME280;10614;53.198;6.570;2023-02-15T05:30:25;102760.06;;;2.10;100.00
20909;BME280;10614;53.198;6.570;2023-02-15T05:32:27;102754.00;;;2.08;100.00
20909;BME280;10614;53.198;6.570;2023-02-15T05:34:29;102754.88;;;2.10;100.00
20909;BME280;10614;53.198;6.570;2023-02-15T05:36:30;102758.31;;;2.09;100.00
20909;BME280;10614;53.198;6.570;2023-02-15T05:38:32;102750.53;;;2.09;100.00
20909;BME280;10614;53.198;6.570;2023-02-15T05:40:34;102755.72;;;2.09;100.00
20909;BME280;10614;53.198;6.570;2023-02-15T05:42:36;102747.88;;;2.06;100.00
20909;BME280;10614;53.198;6.570;2023-02-15T05:44:37;102754.88;;;2.09;100.00
20909;BME280;10614;53.198;6.570;2023-02-15T05:46:40;102752.22;;;2.07;100.00
20909;BME280;10614;53.198;6.570;2023-02-15T05:48:42;102746.97;;;2.06;100.00
20909;BME280;10614;53.198;6.570;2023-02-15T05:50:44;102740.03;;;2.05;100.00
20909;BME280;10614;53.198;6.570;2023-02-15T05:52:45;102741.78;;;2.06;100.00
20909;BME280;10614;53.198;6.570;2023-02-15T05:54:47;102749.56;;;2.06;100.00
20909;BME280;10614;53.198;6.570;2023-02-15T05:56:48;102749.53;;;2.04;100.00
20909;BME280;10614;53.198;6.570;2023-02-15T05:58:52;102751.28;;;2.04;100.00
20909;BME280;10614;53.198;6.570;2023-02-15T06:00:55;102742.56;;;2.03;100.00
20909;BME280;10614;53.198;6.570;2023-02-15T06:02:58;102746.91;;;2.03;100.00
20909;BME280;10614;53.198;6.570;2023-02-15T06:04:59;102742.50;;;2.00;100.00
20909;BME280;10614;53.198;6.570;2023-02-15T06:07:01;102747.75;;;2.02;100.00
20909;BME280;10614;53.198;6.570;2023-02-15T06:09:03;102739.84;;;1.99;100.00
20909;BME280;10614;53.198;6.570;2023-02-15T06:11:05;102751.16;;;1.99;100.00
20909;BME280;10614;53.198;6.570;2023-02-15T06:13:06;102745.91;;;1.98;100.00
20909;BME280;10614;53.198;6.570;2023-02-15T06:15:08;102753.69;;;1.98;100.00
20909;BME280;10614;53.198;6.570;2023-02-15T06:17:10;102751.09;;;1.98;100.00
20909;BME280;10614;53.198;6.570;2023-02-15T06:19:13;102757.16;;;1.97;100.00
20909;BME280;10614;53.198;6.570;2023-02-15T06:21:16;102744.97;;;1.96;100.00
20909;BME280;10614;53.198;6.570;2023-02-15T06:23:18;102756.22;;;1.95;100.00
20909;BME280;10614;53.198;6.570;2023-02-15T06:25:19;102751.03;;;1.95;100.00
20909;BME280;10614;53.198;6.570;2023-02-15T06:27:21;102749.31;;;1.95;100.00
20909;BME280;10614;53.198;6.570;2023-02-15T06:29:23;102747.53;;;1.94;100.00
20909;BME280;10614;53.198;6.570;2023-02-15T06:31:24;102744.09;;;1.95;100.00
20909;BME280;10614;53.198;6.570;2023-02-15T06:33:26;102739.75;;;1.94;100.00
20909;BME280;10614;53.198;6.570;2023-02-15T06:35:29;102744.94;;;1.94;100.00
20909;BME280;10614;53.198;6.570;2023-02-15T06:37:31;102738.88;;;1.94;100.00
20909;BME280;10614;53.198;6.570;2023-02-15T06:39:32;102738.84;;;1.92;100.00
20909;BME280;10614;53.198;6.570;2023-02-15T06:41:34;102737.06;;;1.91;100.00
20909;BME280;10614;53.198;6.570;2023-02-15T06:43:35;102744.84;;;1.91;100.00
20909;BME280;10614;53.198;6.570;2023-02-15T06:45:37;102748.31;;;1.90;100.00
20909;BME280;10614;53.198;6.570;2023-02-15T06:47:39;102742.22;;;1.89;100.00
20909;BME280;10614;53.198;6.570;2023-02-15T06:49:40;102748.31;;;1.90;100.00
20909;BME280;10614;53.198;6.570;2023-02-15T06:51:43;102744.78;;;1.88;100.00
20909;BME280;10614;53.198;6.570;2023-02-15T06:53:45;102744.78;;;1.88;100.00
20909;BME280;10614;53.198;6.570;2023-02-15T06:55:47;102744.75;;;1.86;100.00
20909;BME280;10614;53.198;6.570;2023-02-15T06:57:48;102736.06;;;1.86;100.00
20909;BME280;10614;53.198;6.570;2023-02-15T06:59:50;102735.22;;;1.85;100.00
20909;BME280;10614;53.198;6.570;2023-02-15T07:01:53;102746.41;;;1.84;100.00
20909;BME280;10614;53.198;6.570;2023-02-15T07:03:54;102743.78;;;1.83;100.00
20909;BME280;10614;53.198;6.570;2023-02-15T07:05:56;102736.88;;;1.83;100.00
20909;BME280;10614;53.198;6.570;2023-02-15T07:08:00;102733.41;;;1.83;100.00
20909;BME280;10614;53.198;6.570;2023-02-15T07:10:02;102735.16;;;1.84;100.00
20909;BME280;10614;53.198;6.570;2023-02-15T07:12:04;102735.16;;;1.84;100.00
20909;BME280;10614;53.198;6.570;2023-02-15T07:14:23;102729.03;;;1.82;100.00
20909;BME280;10614;53.198;6.570;2023-02-15T07:16:25;102730.84;;;1.84;100.00
20909;BME280;10614;53.198;6.570;2023-02-15T07:18:26;102728.22;;;1.84;100.00
20909;BME280;10614;53.198;6.570;2023-02-15T07:20:28;102724.81;;;1.85;100.00
20909;BME280;10614;53.198;6.570;2023-02-15T07:22:30;102722.25;;;1.87;100.00
20909;BME280;10614;53.198;6.570;2023-02-15T07:24:35;102729.22;;;1.88;100.00
20909;BME280;10614;53.198;6.570;2023-02-15T07:26:37;102731.81;;;1.88;100.00
20909;BME280;10614;53.198;6.570;2023-02-15T07:28:38;102735.28;;;1.88;100.00
20909;BME280;10614;53.198;6.570;2023-02-15T07:30:40;102725.75;;;1.89;100.00
20909;BME280;10614;53.198;6.570;2023-02-15T07:32:42;102726.63;;;1.89;100.00
20909;BME280;10614;53.198;6.570;2023-02-15T07:34:58;102722.34;;;1.90;100.00
20909;BME280;10614;53.198;6.570;2023-02-15T07:37:00;102729.28;;;1.91;100.00
20909;BME280;10614;53.198;6.570;2023-02-15T07:39:02;102726.69;;;1.91;100.00
20909;BME280;10614;53.198;6.570;2023-02-15T07:41:06;102721.53;;;1.93;100.00
20909;BME280;10614;53.198;6.570;2023-02-15T07:43:08;102723.25;;;1.92;100.00
20909;BME280;10614;53.198;6.570;2023-02-15T07:45:10;102723.28;;;1.94;100.00
20909;BME280;10614;53.198;6.570;2023-02-15T07:47:11;102721.56;;;1.94;100.00
20909;BME280;10614;53.198;6.570;2023-02-15T07:49:13;102729.34;;;1.94;100.00
20909;BME280;10614;53.198;6.570;2023-02-15T07:51:15;102716.34;;;1.93;100.00
20909;BME280;10614;53.198;6.570;2023-02-15T07:53:17;102716.34;;;1.93;100.00
20909;BME280;10614;53.198;6.570;2023-02-15T07:55:19;102709.38;;;1.92;100.00
20909;BME280;10614;53.198;6.570;2023-02-15T07:57:22;102710.28;;;1.92;100.00
20909;BME280;10614;53.198;6.570;2023-02-15T07:59:24;102710.34;;;1.95;100.00
20909;BME280;10614;53.198;6.570;2023-02-15T08:01:27;102700.81;;;1.96;100.00
20909;BME280;10614;53.198;6.570;2023-02-15T08:03:30;102702.56;;;1.95;100.00
20909;BME280;10614;53.198;6.570;2023-02-15T08:05:32;102690.38;;;1.94;100.00
20909;BME280;10614;53.198;6.570;2023-02-15T08:07:33;102698.22;;;1.96;100.00
20909;BME280;10614;53.198;6.570;2023-02-15T08:09:35;102697.38;;;1.95;100.00
20909;BME280;10614;53.198;6.570;2023-02-15T08:11:38;102695.69;;;1.99;100.00
20909;BME280;10614;53.198;6.570;2023-02-15T08:13:43;102701.81;;;2.01;100.00
20909;BME280;10614;53.198;6.570;2023-02-15T08:15:53;102701.88;;;2.02;100.00
20909;BME280;10614;53.198;6.570;2023-02-15T08:17:55;102697.53;;;2.03;100.00
20909;BME280;10614;53.198;6.570;2023-02-15T08:19:57;102695.81;;;2.03;100.00
20909;BME280;10614;53.198;6.570;2023-02-15T08:22:00;102699.38;;;2.07;100.00
20909;BME280;10614;53.198;6.570;2023-02-15T08:24:03;102689.88;;;2.07;100.00
20909;BME280;10614;53.198;6.570;2023-02-15T08:26:05;102688.19;;;2.09;100.00
20909;BME280;10614;53.198;6.570;2023-02-15T08:28:07;102689.09;;;2.11;100.00
20909;BME280;10614;53.198;6.570;2023-02-15T08:30:11;102693.44;;;2.13;100.00
20909;BME280;10614;53.198;6.570;2023-02-15T08:32:14;102683.09;;;2.14;100.00
20909;BME280;10614;53.198;6.570;2023-02-15T08:34:17;102689.22;;;2.16;100.00
20909;BME280;10614;53.198;6.570;2023-02-15T08:36:21;102686.69;;;2.19;100.00
20909;BME280;10614;53.198;6.570;2023-02-15T08:38:23;102684.16;;;2.22;100.00
20909;BME280;10614;53.198;6.570;2023-02-15T08:40:25;102680.72;;;2.23;100.00
20909;BME280;10614;53.198;6.570;2023-02-15T08:42:27;102679.88;;;2.24;100.00
20909;BME280;10614;53.198;6.570;2023-02-15T08:44:29;102684.31;;;2.28;100.00
20909;BME280;10614;53.198;6.570;2023-02-15T08:46:33;102676.56;;;2.30;100.00
20909;BME280;10614;53.198;6.570;2023-02-15T08:48:35;102675.75;;;2.32;100.00
20909;BME280;10614;53.198;6.570;2023-02-15T08:50:37;102670.56;;;2.32;100.00
20909;BME280;10614;53.198;6.570;2023-02-15T08:52:39;102668.88;;;2.35;100.00
20909;BME280;10614;53.198;6.570;2023-02-15T08:54:41;102664.63;;;2.38;100.00
20909;BME280;10614;53.198;6.570;2023-02-15T08:56:45;102666.41;;;2.41;100.00
20909;BME280;10614;53.198;6.570;2023-02-15T08:58:46;102668.19;;;2.43;100.00
20909;BME280;10614;53.198;6.570;2023-02-15T09:00:48;102664.75;;;2.44;100.00
20909;BME280;10614;53.198;6.570;2023-02-15T09:02:51;102658.81;;;2.48;100.00
20909;BME280;10614;53.198;6.570;2023-02-15T09:04:53;102664.00;;;2.50;100.00
20909;BME280;10614;53.198;6.570;2023-02-15T09:06:55;102664.88;;;2.50;100.00
20909;BME280;10614;53.198;6.570;2023-02-15T09:08:57;102664.09;;;2.53;100.00
20909;BME280;10614;53.198;6.570;2023-02-15T09:11:07;102659.84;;;2.57;100.00
20909;BME280;10614;53.198;6.570;2023-02-15T09:13:09;102657.28;;;2.58;100.00
20909;BME280;10614;53.198;6.570;2023-02-15T09:15:11;102658.22;;;2.62;100.00
20909;BME280;10614;53.198;6.570;2023-02-15T09:17:12;102656.53;;;2.64;100.00
20909;BME280;10614;53.198;6.570;2023-02-15T09:19:16;102653.91;;;2.64;100.00
20909;BME280;10614;53.198;6.570;2023-02-15T09:21:20;102660.09;;;2.69;100.00
20909;BME280;10614;53.198;6.570;2023-02-15T09:23:22;102660.13;;;2.70;100.00
20909;BME280;10614;53.198;6.570;2023-02-15T09:25:24;102661.06;;;2.72;100.00
20909;BME280;10614;53.198;6.570;2023-02-15T09:27:26;102656.78;;;2.76;100.00
20909;BME280;10614;53.198;6.570;2023-02-15T09:29:27;102657.69;;;2.77;100.00
20909;BME280;10614;53.198;6.570;2023-02-15T09:31:30;102652.53;;;2.80;100.00
20909;BME280;10614;53.198;6.570;2023-02-15T09:33:33;102639.59;;;2.83;100.00
20909;BME280;10614;53.198;6.570;2023-02-15T09:35:36;102643.16;;;2.86;100.00
20909;BME280;10614;53.198;6.570;2023-02-15T09:37:37;102643.19;;;2.89;100.00
20909;BME280;10614;53.198;6.570;2023-02-15T09:39:41;102642.44;;;2.93;100.00
20909;BME280;10614;53.198;6.570;2023-02-15T09:42:11;102647.72;;;2.98;100.00
20909;BME280;10614;53.198;6.570;2023-02-15T09:44:28;102640.84;;;3.02;100.00
20909;BME280;10614;53.198;6.570;2023-02-15T09:46:47;102636.53;;;3.04;100.00
20909;BME280;10614;53.198;6.570;2023-02-15T09:48:54;102640.09;;;3.09;100.00
20909;BME280;10614;53.198;6.570;2023-02-15T09:51:07;102641.94;;;3.13;100.00
20909;BME280;10614;53.198;6.570;2023-02-15T09:53:29;102631.56;;;3.16;100.00
20909;BME280;10614;53.198;6.570;2023-02-15T09:55:45;102633.38;;;3.19;100.00
20909;BME280;10614;53.198;6.570;2023-02-15T09:57:54;102633.50;;;3.25;100.00
20909;BME280;10614;53.198;6.570;2023-02-15T10:00:09;102631.84;;;3.28;100.00
20909;BME280;10614;53.198;6.570;2023-02-15T10:02:24;102636.22;;;3.32;100.00
20909;BME280;10614;53.198;6.570;2023-02-15T10:04:44;102637.22;;;3.37;100.00
20909;BME280;10614;53.198;6.570;2023-02-15T10:06:57;102632.06;;;3.41;100.00
20909;BME280;10614;53.198;6.570;2023-02-15T10:09:24;102633.88;;;3.46;100.00
20909;BME280;10614;53.198;6.570;2023-02-15T10:11:40;102632.25;;;3.51;100.00
20909;BME280;10614;53.198;6.570;2023-02-15T10:13:59;102630.63;;;3.58;100.00
20909;BME280;10614;53.198;6.570;2023-02-15T10:16:12;102634.16;;;3.62;100.00
20909;BME280;10614;53.198;6.570;2023-02-15T10:18:26;102629.91;;;3.67;100.00
20909;BME280;10614;53.198;6.570;2023-02-15T10:20:36;102632.59;;;3.71;100.00
20909;BME280;10614;53.198;6.570;2023-02-15T10:22:50;102631.84;;;3.78;100.00
20909;BME280;10614;53.198;6.570;2023-02-15T10:25:07;102631.97;;;3.85;100.00
20909;BME280;10614;53.198;6.570;2023-02-15T10:27:19;102626.78;;;3.88;100.00
20909;BME280;10614;53.198;6.570;2023-02-15T10:29:29;102628.63;;;3.93;100.00
20909;BME280;10614;53.198;6.570;2023-02-15T10:31:37;102631.28;;;3.98;100.00
20909;BME280;10614;53.198;6.570;2023-02-15T10:33:43;102625.34;;;4.05;100.00
20909;BME280;10614;53.198;6.570;2023-02-15T10:35:52;102628.94;;;4.13;100.00
20909;BME280;10614;53.198;6.570;2023-02-15T10:38:19;102625.53;;;4.19;100.00
20909;BME280;10614;53.198;6.570;2023-02-15T10:40:26;102619.56;;;4.25;100.00
20909;BME280;10614;53.198;6.570;2023-02-15T10:42:38;102623.97;;;4.29;100.00
20909;BME280;10614;53.198;6.570;2023-02-15T10:44:54;102624.91;;;4.35;100.00
20909;BME280;10614;53.198;6.570;2023-02-15T10:47:32;102627.59;;;4.41;100.00
20909;BME280;10614;53.198;6.570;2023-02-15T10:49:50;102618.09;;;4.45;100.00
20909;BME280;10614;53.198;6.570;2023-02-15T10:52:07;102620.78;;;4.51;100.00
20909;BME280;10614;53.198;6.570;2023-02-15T10:54:24;102618.28;;;4.57;100.00
20909;BME280;10614;53.198;6.570;2023-02-15T10:56:33;102612.28;;;4.64;100.00
20909;BME280;10614;53.198;6.570;2023-02-15T10:58:49;102615.84;;;4.71;100.00
20909;BME280;10614;53.198;6.570;2023-02-15T11:01:00;102606.38;;;4.78;100.00
20909;BME280;10614;53.198;6.570;2023-02-15T11:03:16;102608.19;;;4.86;100.00